sensor_id;sensor_type;location;lat;lon;timestamp;temperature;humidity
20284;DHT22;10301;50.832;4.080;2022-10-16T00:01:16;14.30;59.00
20284;DHT22;10301;50.832;4.080;2022-10-16T00:03:43;14.30;56.80
20284;DHT22;10301;50.832;4.080;2022-10-16T00:06:10;14.40;54.70
20284;DHT22;10301;50.832;4.080;2022-10-16T00:08:37;14.40;55.60
20284;DHT22;10301;50.832;4.080;2022-10-16T00:11:14;14.40;55.90
20284;DHT22;10301;50.832;4.080;2022-10-16T00:13:41;14.20;58.30
20284;DHT22;10301;50.832;4.080;2022-10-16T00:16:07;14.20;59.20
20284;DHT22;10301;50.832;4.080;2022-10-16T00:18:34;14.10;62.80
20284;DHT22;10301;50.832;4.080;2022-10-16T00:21:09;14.10;64.90
20284;DHT22;10301;50.832;4.080;2022-10-16T00:23:35;14.30;58.50
20284;DHT22;10301;50.832;4.080;2022-10-16T00:26:03;14.40;53.70
20284;DHT22;10301;50.832;4.080;2022-10-16T00:28:30;14.20;58.70
20284;DHT22;10301;50.832;4.080;2022-10-16T00:30:56;14.20;58.90
20284;DHT22;10301;50.832;4.080;2022-10-16T00:33:22;14.20;59.00
20284;DHT22;10301;50.832;4.080;2022-10-16T00:35:48;14.20;58.80
20284;DHT22;10301;50.832;4.080;2022-10-16T00:38:14;14.20;61.20
20284;DHT22;10301;50.832;4.080;2022-10-16T00:40:40;14.20;59.80
20284;DHT22;10301;50.832;4.080;2022-10-16T00:43:14;14.10;60.90
20284;DHT22;10301;50.832;4.080;2022-10-16T00:45:59;14.00;64.20
20284;DHT22;10301;50.832;4.080;2022-10-16T00:48:25;14.00;68.40
20284;DHT22;10301;50.832;4.080;2022-10-16T00:50:51;14.10;65.40
20284;DHT22;10301;50.832;4.080;2022-10-16T00:53:17;14.10;63.40
20284;DHT22;10301;50.832;4.080;2022-10-16T00:55:43;14.20;62.60
20284;DHT22;10301;50.832;4.080;2022-10-16T00:58:09;14.10;59.30
20284;DHT22;10301;50.832;4.080;2022-10-16T01:00:35;14.10;62.50
20284;DHT22;10301;50.832;4.080;2022-10-16T01:03:02;14.00;68.00
20284;DHT22;10301;50.832;4.080;2022-10-16T01:05:49;13.80;70.90
20284;DHT22;10301;50.832;4.080;2022-10-16T01:08:24;13.80;74.20
20284;DHT22;10301;50.832;4.080;2022-10-16T01:11:00;13.80;76.60
20284;DHT22;10301;50.832;4.080;2022-10-16T01:13:35;13.90;70.00
20284;DHT22;10301;50.832;4.080;2022-10-16T01:18:42;13.90;68.80
20284;DHT22;10301;50.832;4.080;2022-10-16T01:21:19;13.90;69.40
20284;DHT22;10301;50.832;4.080;2022-10-16T01:27:36;13.70;77.80
20284;DHT22;10301;50.832;4.080;2022-10-16T01:35:10;13.90;74.20
20284;DHT22;10301;50.832;4.080;2022-10-16T01:37:38;14.00;70.40
20284;DHT22;10301;50.832;4.080;2022-10-16T01:40:09;13.90;72.30
20284;DHT22;10301;50.832;4.080;2022-10-16T01:42:40;13.70;77.80
20284;DHT22;10301;50.832;4.080;2022-10-16T01:45:07;13.70;80.20
20284;DHT22;10301;50.832;4.080;2022-10-16T01:47:37;13.70;79.80
20284;DHT22;10301;50.832;4.080;2022-10-16T01:50:04;13.80;78.30
20284;DHT22;10301;50.832;4.080;2022-10-16T01:52:32;13.80;79.10
20284;DHT22;10301;50.832;4.080;2022-10-16T01:55:02;13.70;81.30
20284;DHT22;10301;50.832;4.080;2022-10-16T01:57:29;13.70;82.70
20284;DHT22;10301;50.832;4.080;2022-10-16T01:59:59;13.70;81.80
20284;DHT22;10301;50.832;4.080;2022-10-16T02:02:28;13.70;83.30
20284;DHT22;10301;50.832;4.080;2022-10-16T02:05:04;13.70;83.80
20284;DHT22;10301;50.832;4.080;2022-10-16T02:07:30;14.00;74.00
20284;DHT22;10301;50.832;4.080;2022-10-16T02:09:56;13.80;75.80
20284;DHT22;10301;50.832;4.080;2022-10-16T02:12:32;13.70;82.10
20284;DHT22;10301;50.832;4.080;2022-10-16T02:15:00;13.70;84.80
20284;DHT22;10301;50.832;4.080;2022-10-16T02:17:26;13.50;87.20
20284;DHT22;10301;50.832;4.080;2022-10-16T02:19:54;13.50;89.60
20284;DHT22;10301;50.832;4.080;2022-10-16T02:22:30;13.50;90.60
20284;DHT22;10301;50.832;4.080;2022-10-16T02:30:48;13.60;87.90
20284;DHT22;10301;50.832;4.080;2022-10-16T02:33:15;13.60;89.20
20284;DHT22;10301;50.832;4.080;2022-10-16T02:35:43;13.60;90.60
20284;DHT22;10301;50.832;4.080;2022-10-16T02:38:11;13.60;90.00
20284;DHT22;10301;50.832;4.080;2022-10-16T02:40:37;13.60;90.10
20284;DHT22;10301;50.832;4.080;2022-10-16T02:43:04;13.60;90.40
20284;DHT22;10301;50.832;4.080;2022-10-16T02:45:31;13.60;89.00
20284;DHT22;10301;50.832;4.080;2022-10-16T02:47:56;13.50;90.40
20284;DHT22;10301;50.832;4.080;2022-10-16T02:50:22;13.60;90.80
20284;DHT22;10301;50.832;4.080;2022-10-16T02:52:49;13.70;86.10
20284;DHT22;10301;50.832;4.080;2022-10-16T02:55:15;13.60;89.20
20284;DHT22;10301;50.832;4.080;2022-10-16T02:57:40;13.60;90.20
20284;DHT22;10301;50.832;4.080;2022-10-16T03:00:08;13.50;91.30
20284;DHT22;10301;50.832;4.080;2022-10-16T03:02:35;13.50;92.20
20284;DHT22;10301;50.832;4.080;2022-10-16T03:05:00;13.50;92.20
20284;DHT22;10301;50.832;4.080;2022-10-16T03:07:26;13.50;91.80
20284;DHT22;10301;50.832;4.080;2022-10-16T03:09:51;13.60;92.30
20284;DHT22;10301;50.832;4.080;2022-10-16T03:12:17;13.60;92.00
20284;DHT22;10301;50.832;4.080;2022-10-16T03:14:43;13.60;91.20
20284;DHT22;10301;50.832;4.080;2022-10-16T03:17:08;13.80;90.60
20284;DHT22;10301;50.832;4.080;2022-10-16T03:19:34;13.90;82.30
20284;DHT22;10301;50.832;4.080;2022-10-16T03:22:01;13.90;84.00
20284;DHT22;10301;50.832;4.080;2022-10-16T03:24:27;13.80;86.20
20284;DHT22;10301;50.832;4.080;2022-10-16T03:26:52;13.70;90.00
20284;DHT22;10301;50.832;4.080;2022-10-16T03:29:18;13.70;90.80
20284;DHT22;10301;50.832;4.080;2022-10-16T03:31:44;13.70;89.70
20284;DHT22;10301;50.832;4.080;2022-10-16T03:34:09;13.80;89.50
20284;DHT22;10301;50.832;4.080;2022-10-16T03:36:35;13.90;85.10
20284;DHT22;10301;50.832;4.080;2022-10-16T03:39:01;13.90;83.30
20284;DHT22;10301;50.832;4.080;2022-10-16T03:41:26;13.80;85.60
20284;DHT22;10301;50.832;4.080;2022-10-16T03:43:52;13.80;87.10
20284;DHT22;10301;50.832;4.080;2022-10-16T03:46:17;13.80;86.90
20284;DHT22;10301;50.832;4.080;2022-10-16T03:48:43;13.90;84.30
20284;DHT22;10301;50.832;4.080;2022-10-16T03:51:09;13.90;83.30
20284;DHT22;10301;50.832;4.080;2022-10-16T03:53:34;13.70;88.70
20284;DHT22;10301;50.832;4.080;2022-10-16T03:56:00;13.70;90.30
20284;DHT22;10301;50.832;4.080;2022-10-16T03:58:26;13.70;90.00
20284;DHT22;10301;50.832;4.080;2022-10-16T04:00:51;13.80;90.70
20284;DHT22;10301;50.832;4.080;2022-10-16T04:03:17;13.80;88.90
20284;DHT22;10301;50.832;4.080;2022-10-16T04:05:44;13.70;90.70
20284;DHT22;10301;50.832;4.080;2022-10-16T04:08:10;13.70;91.00
20284;DHT22;10301;50.832;4.080;2022-10-16T04:10:36;13.80;90.70
20284;DHT22;10301;50.832;4.080;2022-10-16T04:13:01;13.80;87.40
20284;DHT22;10301;50.832;4.080;2022-10-16T04:15:27;13.80;87.90
20284;DHT22;10301;50.832;4.080;2022-10-16T04:17:52;13.80;87.60
20284;DHT22;10301;50.832;4.080;2022-10-16T04:20:18;13.80;88.20
20284;DHT22;10301;50.832;4.080;2022-10-16T04:22:44;13.80;89.40
20284;DHT22;10301;50.832;4.080;2022-10-16T04:25:10;13.70;86.60
20284;DHT22;10301;50.832;4.080;2022-10-16T04:27:37;13.70;89.80
20284;DHT22;10301;50.832;4.080;2022-10-16T04:30:03;13.70;89.00
20284;DHT22;10301;50.832;4.080;2022-10-16T04:32:29;13.80;85.10
20284;DHT22;10301;50.832;4.080;2022-10-16T04:34:55;13.70;88.50
20284;DHT22;10301;50.832;4.080;2022-10-16T04:37:25;13.80;86.30
20284;DHT22;10301;50.832;4.080;2022-10-16T04:39:51;13.80;86.80
20284;DHT22;10301;50.832;4.080;2022-10-16T04:42:16;13.80;86.50
20284;DHT22;10301;50.832;4.080;2022-10-16T04:44:42;13.80;85.70
20284;DHT22;10301;50.832;4.080;2022-10-16T04:47:11;13.80;87.20
20284;DHT22;10301;50.832;4.080;2022-10-16T04:49:36;13.80;85.50
20284;DHT22;10301;50.832;4.080;2022-10-16T04:52:02;13.70;87.10
20284;DHT22;10301;50.832;4.080;2022-10-16T04:54:28;13.80;86.20
20284;DHT22;10301;50.832;4.080;2022-10-16T04:56:53;13.80;84.40
20284;DHT22;10301;50.832;4.080;2022-10-16T04:59:20;13.70;86.50
20284;DHT22;10301;50.832;4.080;2022-10-16T05:01:46;13.70;88.20
20284;DHT22;10301;50.832;4.080;2022-10-16T05:04:12;13.50;91.40
20284;DHT22;10301;50.832;4.080;2022-10-16T05:06:38;13.50;93.00
20284;DHT22;10301;50.832;4.080;2022-10-16T05:09:05;13.70;91.20
20284;DHT22;10301;50.832;4.080;2022-10-16T05:11:31;13.50;91.60
20284;DHT22;10301;50.832;4.080;2022-10-16T05:13:57;13.40;94.10
20284;DHT22;10301;50.832;4.080;2022-10-16T05:16:22;13.30;95.00
20284;DHT22;10301;50.832;4.080;2022-10-16T05:18:48;13.30;95.00
20284;DHT22;10301;50.832;4.080;2022-10-16T05:21:14;13.30;95.30
20284;DHT22;10301;50.832;4.080;2022-10-16T05:23:39;13.40;95.60
20284;DHT22;10301;50.832;4.080;2022-10-16T05:26:05;13.40;95.40
20284;DHT22;10301;50.832;4.080;2022-10-16T05:28:31;13.30;95.70
20284;DHT22;10301;50.832;4.080;2022-10-16T05:30:57;13.40;95.70
20284;DHT22;10301;50.832;4.080;2022-10-16T05:33:26;13.40;94.80
20284;DHT22;10301;50.832;4.080;2022-10-16T05:35:52;13.40;94.50
20284;DHT22;10301;50.832;4.080;2022-10-16T05:38:18;13.30;95.60
20284;DHT22;10301;50.832;4.080;2022-10-16T05:40:51;13.20;96.20
20284;DHT22;10301;50.832;4.080;2022-10-16T05:43:17;13.10;96.90
20284;DHT22;10301;50.832;4.080;2022-10-16T05:45:42;13.10;97.70
20284;DHT22;10301;50.832;4.080;2022-10-16T05:48:08;13.20;98.10
20284;DHT22;10301;50.832;4.080;2022-10-16T05:50:34;13.30;98.00
20284;DHT22;10301;50.832;4.080;2022-10-16T05:52:59;13.40;97.50
20284;DHT22;10301;50.832;4.080;2022-10-16T05:55:25;13.60;96.30
20284;DHT22;10301;50.832;4.080;2022-10-16T05:57:53;13.70;94.70
20284;DHT22;10301;50.832;4.080;2022-10-16T06:00:19;13.80;92.50
20284;DHT22;10301;50.832;4.080;2022-10-16T06:02:44;13.60;92.90
20284;DHT22;10301;50.832;4.080;2022-10-16T06:05:10;13.80;93.30
20284;DHT22;10301;50.832;4.080;2022-10-16T06:07:36;13.70;92.40
20284;DHT22;10301;50.832;4.080;2022-10-16T06:10:03;13.70;93.20
20284;DHT22;10301;50.832;4.080;2022-10-16T06:12:29;13.70;93.40
20284;DHT22;10301;50.832;4.080;2022-10-16T06:14:55;13.60;94.20
20284;DHT22;10301;50.832;4.080;2022-10-16T06:17:21;13.60;95.10
20284;DHT22;10301;50.832;4.080;2022-10-16T06:19:46;13.50;95.80
20284;DHT22;10301;50.832;4.080;2022-10-16T06:22:12;13.70;95.10
20284;DHT22;10301;50.832;4.080;2022-10-16T06:24:38;13.80;93.70
20284;DHT22;10301;50.832;4.080;2022-10-16T06:27:04;14.00;91.70
20284;DHT22;10301;50.832;4.080;2022-10-16T06:29:30;14.10;87.50
20284;DHT22;10301;50.832;4.080;2022-10-16T06:31:55;14.00;89.40
20284;DHT22;10301;50.832;4.080;2022-10-16T06:34:21;13.80;91.00
20284;DHT22;10301;50.832;4.080;2022-10-16T06:36:47;13.70;93.30
20284;DHT22;10301;50.832;4.080;2022-10-16T06:39:12;13.70;93.90
20284;DHT22;10301;50.832;4.080;2022-10-16T06:41:38;13.90;92.50
20284;DHT22;10301;50.832;4.080;2022-10-16T06:44:07;13.90;89.00
20284;DHT22;10301;50.832;4.080;2022-10-16T06:46:33;13.90;90.00
20284;DHT22;10301;50.832;4.080;2022-10-16T06:48:59;13.90;87.80
20284;DHT22;10301;50.832;4.080;2022-10-16T06:51:25;13.80;91.30
20284;DHT22;10301;50.832;4.080;2022-10-16T06:53:53;13.90;90.00
20284;DHT22;10301;50.832;4.080;2022-10-16T06:56:24;13.80;89.80
20284;DHT22;10301;50.832;4.080;2022-10-16T06:58:51;13.70;91.40
20284;DHT22;10301;50.832;4.080;2022-10-16T07:01:22;13.80;91.70
20284;DHT22;10301;50.832;4.080;2022-10-16T07:03:49;13.70;91.00
20284;DHT22;10301;50.832;4.080;2022-10-16T07:06:18;13.80;91.70
20284;DHT22;10301;50.832;4.080;2022-10-16T07:08:46;14.00;90.10
20284;DHT22;10301;50.832;4.080;2022-10-16T07:11:18;14.20;85.60
20284;DHT22;10301;50.832;4.080;2022-10-16T07:13:44;14.20;81.60
20284;DHT22;10301;50.832;4.080;2022-10-16T07:16:15;14.10;83.20
20284;DHT22;10301;50.832;4.080;2022-10-16T07:18:42;14.00;86.90
20284;DHT22;10301;50.832;4.080;2022-10-16T07:21:15;13.90;90.50
20284;DHT22;10301;50.832;4.080;2022-10-16T07:23:41;13.90;90.20
20284;DHT22;10301;50.832;4.080;2022-10-16T07:26:08;14.10;89.60
20284;DHT22;10301;50.832;4.080;2022-10-16T07:28:34;14.20;86.20
20284;DHT22;10301;50.832;4.080;2022-10-16T07:31:04;14.10;85.70
20284;DHT22;10301;50.832;4.080;2022-10-16T07:33:31;14.10;89.40
20284;DHT22;10301;50.832;4.080;2022-10-16T07:35:57;14.10;87.60
20284;DHT22;10301;50.832;4.080;2022-10-16T07:38:23;14.20;88.70
20284;DHT22;10301;50.832;4.080;2022-10-16T07:40:59;14.20;84.70
20284;DHT22;10301;50.832;4.080;2022-10-16T07:43:26;14.40;84.70
20284;DHT22;10301;50.832;4.080;2022-10-16T07:45:53;14.80;74.20
20284;DHT22;10301;50.832;4.080;2022-10-16T07:48:19;14.70;73.10
20284;DHT22;10301;50.832;4.080;2022-10-16T07:50:45;14.60;78.70
20284;DHT22;10301;50.832;4.080;2022-10-16T07:53:11;14.70;75.10
20284;DHT22;10301;50.832;4.080;2022-10-16T07:55:37;14.90;71.30
20284;DHT22;10301;50.832;4.080;2022-10-16T07:58:03;14.90;71.90
20284;DHT22;10301;50.832;4.080;2022-10-16T08:00:30;14.80;71.90
20284;DHT22;10301;50.832;4.080;2022-10-16T08:02:57;14.90;69.90
20284;DHT22;10301;50.832;4.080;2022-10-16T08:05:29;14.90;70.90
20284;DHT22;10301;50.832;4.080;2022-10-16T08:07:55;14.90;69.40
20284;DHT22;10301;50.832;4.080;2022-10-16T08:10:23;15.00;69.90
20284;DHT22;10301;50.832;4.080;2022-10-16T08:12:49;15.30;64.20
20284;DHT22;10301;50.832;4.080;2022-10-16T08:15:15;15.20;61.70
20284;DHT22;10301;50.832;4.080;2022-10-16T08:17:41;15.30;63.10
20284;DHT22;10301;50.832;4.080;2022-10-16T08:20:07;15.30;61.60
20284;DHT22;10301;50.832;4.080;2022-10-16T08:22:33;15.10;63.00
20284;DHT22;10301;50.832;4.080;2022-10-16T08:24:58;15.20;66.50
20284;DHT22;10301;50.832;4.080;2022-10-16T08:27:24;15.30;60.60
20284;DHT22;10301;50.832;4.080;2022-10-16T08:29:50;15.50;57.40
20284;DHT22;10301;50.832;4.080;2022-10-16T08:32:15;15.50;54.20
20284;DHT22;10301;50.832;4.080;2022-10-16T08:34:41;15.40;55.50
20284;DHT22;10301;50.832;4.080;2022-10-16T08:37:07;15.50;57.00
20284;DHT22;10301;50.832;4.080;2022-10-16T08:39:36;15.50;57.00
20284;DHT22;10301;50.832;4.080;2022-10-16T08:47:25;16.00;43.40
20284;DHT22;10301;50.832;4.080;2022-10-16T08:49:59;15.90;44.50
20284;DHT22;10301;50.832;4.080;2022-10-16T08:52:29;15.90;42.50
20284;DHT22;10301;50.832;4.080;2022-10-16T08:54:56;15.90;48.70
20284;DHT22;10301;50.832;4.080;2022-10-16T08:57:24;15.90;46.80
20284;DHT22;10301;50.832;4.080;2022-10-16T08:59:52;16.00;44.80
20284;DHT22;10301;50.832;4.080;2022-10-16T09:02:43;16.20;39.90
20284;DHT22;10301;50.832;4.080;2022-10-16T09:06:12;16.10;43.30
20284;DHT22;10301;50.832;4.080;2022-10-16T09:08:21;16.10;43.90
20284;DHT22;10301;50.832;4.080;2022-10-16T09:10:59;16.10;43.80
20284;DHT22;10301;50.832;4.080;2022-10-16T09:13:51;16.10;45.50
20284;DHT22;10301;50.832;4.080;2022-10-16T09:16:40;16.20;44.20
20284;DHT22;10301;50.832;4.080;2022-10-16T09:19:20;16.30;36.40
20284;DHT22;10301;50.832;4.080;2022-10-16T09:21:48;16.20;39.30
20284;DHT22;10301;50.832;4.080;2022-10-16T09:24:19;16.20;38.20
20284;DHT22;10301;50.832;4.080;2022-10-16T09:26:46;16.20;42.10
20284;DHT22;10301;50.832;4.080;2022-10-16T09:29:17;16.30;40.60
20284;DHT22;10301;50.832;4.080;2022-10-16T09:31:45;16.50;35.40
20284;DHT22;10301;50.832;4.080;2022-10-16T09:34:29;16.50;33.90
20284;DHT22;10301;50.832;4.080;2022-10-16T09:36:57;16.70;28.40
20284;DHT22;10301;50.832;4.080;2022-10-16T09:39:24;16.80;24.00
20284;DHT22;10301;50.832;4.080;2022-10-16T09:41:50;16.80;24.90
20284;DHT22;10301;50.832;4.080;2022-10-16T09:46:49;16.90;23.50
20284;DHT22;10301;50.832;4.080;2022-10-16T09:49:22;17.10;20.90
20284;DHT22;10301;50.832;4.080;2022-10-16T09:51:49;17.20;14.80
20284;DHT22;10301;50.832;4.080;2022-10-16T09:54:17;17.30;17.40
20284;DHT22;10301;50.832;4.080;2022-10-16T09:56:43;17.20;20.30
20284;DHT22;10301;50.832;4.080;2022-10-16T09:59:17;17.30;15.60
20284;DHT22;10301;50.832;4.080;2022-10-16T10:04:10;17.80;3.80
20284;DHT22;10301;50.832;4.080;2022-10-16T10:06:36;17.80;1.00
20284;DHT22;10301;50.832;4.080;2022-10-16T10:09:18;17.80;1.00
20284;DHT22;10301;50.832;4.080;2022-10-16T10:11:57;17.80;1.00
20284;DHT22;10301;50.832;4.080;2022-10-16T10:14:44;17.80;6.30
20284;DHT22;10301;50.832;4.080;2022-10-16T10:17:13;18.20;1.00
20284;DHT22;10301;50.832;4.080;2022-10-16T10:19:49;18.50;1.00
20284;DHT22;10301;50.832;4.080;2022-10-16T10:25:15;18.50;1.00
20284;DHT22;10301;50.832;4.080;2022-10-16T10:34:33;18.40;1.00
20284;DHT22;10301;50.832;4.080;2022-10-16T10:36:40;18.40;1.00
20284;DHT22;10301;50.832;4.080;2022-10-16T10:47:38;18.80;1.00
20284;DHT22;10301;50.832;4.080;2022-10-16T10:50:24;18.80;1.00
20284;DHT22;10301;50.832;4.080;2022-10-16T10:53:02;18.90;1.00
20284;DHT22;10301;50.832;4.080;2022-10-16T10:55:41;19.00;1.00
20284;DHT22;10301;50.832;4.080;2022-10-16T10:58:31;18.80;1.00
20284;DHT22;10301;50.832;4.080;2022-10-16T11:01:12;18.90;1.00
20284;DHT22;10301;50.832;4.080;2022-10-16T11:06:46;19.10;1.00
20284;DHT22;10301;50.832;4.080;2022-10-16T11:11:56;19.20;1.00
20284;DHT22;10301;50.832;4.080;2022-10-16T11:14:40;19.10;1.00
20284;DHT22;10301;50.832;4.080;2022-10-16T11:17:16;19.20;1.00
20284;DHT22;10301;50.832;4.080;2022-10-16T11:19:48;19.20;1.00
20284;DHT22;10301;50.832;4.080;2022-10-16T11:25:31;18.90;1.00
20284;DHT22;10301;50.832;4.080;2022-10-16T11:33:57;18.60;1.00
20284;DHT22;10301;50.832;4.080;2022-10-16T11:39:35;18.70;1.00
20284;DHT22;10301;50.832;4.080;2022-10-16T11:42:17;18.40;1.00
20284;DHT22;10301;50.832;4.080;2022-10-16T11:47:42;18.70;1.00
20284;DHT22;10301;50.832;4.080;2022-10-16T11:50:19;18.30;1.00
20284;DHT22;10301;50.832;4.080;2022-10-16T11:53:13;18.10;1.00
20284;DHT22;10301;50.832;4.080;2022-10-16T11:55:43;18.00;1.00
20284;DHT22;10301;50.832;4.080;2022-10-16T11:58:13;18.10;1.00
20284;DHT22;10301;50.832;4.080;2022-10-16T12:00:59;18.30;1.00
20284;DHT22;10301;50.832;4.080;2022-10-16T12:03:35;18.50;1.00
20284;DHT22;10301;50.832;4.080;2022-10-16T12:09:01;18.60;1.00
20284;DHT22;10301;50.832;4.080;2022-10-16T12:11:36;19.10;1.00
20284;DHT22;10301;50.832;4.080;2022-10-16T12:16:55;19.80;1.00
20284;DHT22;10301;50.832;4.080;2022-10-16T12:19:23;19.80;1.00
20284;DHT22;10301;50.832;4.080;2022-10-16T12:21:50;19.80;1.00
20284;DHT22;10301;50.832;4.080;2022-10-16T12:24:33;19.70;1.00
20284;DHT22;10301;50.832;4.080;2022-10-16T12:27:01;19.60;1.00
20284;DHT22;10301;50.832;4.080;2022-10-16T12:31:59;19.90;1.00
20284;DHT22;10301;50.832;4.080;2022-10-16T12:34:42;20.00;1.00
20284;DHT22;10301;50.832;4.080;2022-10-16T12:37:35;19.50;1.00
20284;DHT22;10301;50.832;4.080;2022-10-16T12:40:12;19.30;1.00
20284;DHT22;10301;50.832;4.080;2022-10-16T12:42:39;19.40;1.00
20284;DHT22;10301;50.832;4.080;2022-10-16T12:45:24;19.50;1.00
20284;DHT22;10301;50.832;4.080;2022-10-16T12:47:52;19.80;1.00
20284;DHT22;10301;50.832;4.080;2022-10-16T12:52:57;19.90;1.00
20284;DHT22;10301;50.832;4.080;2022-10-16T12:55:23;20.10;1.00
20284;DHT22;10301;50.832;4.080;2022-10-16T12:58:23;20.20;1.00
20284;DHT22;10301;50.832;4.080;2022-10-16T13:09:16;21.00;1.00
20284;DHT22;10301;50.832;4.080;2022-10-16T13:19:48;21.30;1.00
20284;DHT22;10301;50.832;4.080;2022-10-16T13:22:31;21.30;1.00
20284;DHT22;10301;50.832;4.080;2022-10-16T13:25:23;20.70;1.00
20284;DHT22;10301;50.832;4.080;2022-10-16T13:28:03;20.70;1.00
20284;DHT22;10301;50.832;4.080;2022-10-16T13:30:30;20.70;1.00
20284;DHT22;10301;50.832;4.080;2022-10-16T13:33:16;20.90;1.00
20284;DHT22;10301;50.832;4.080;2022-10-16T13:35:54;20.90;1.00
20284;DHT22;10301;50.832;4.080;2022-10-16T13:38:21;21.00;1.00
20284;DHT22;10301;50.832;4.080;2022-10-16T13:43:21;21.20;1.00
20284;DHT22;10301;50.832;4.080;2022-10-16T13:45:59;21.50;1.00
20284;DHT22;10301;50.832;4.080;2022-10-16T13:48:26;21.70;1.00
20284;DHT22;10301;50.832;4.080;2022-10-16T13:51:11;21.60;1.00
20284;DHT22;10301;50.832;4.080;2022-10-16T13:53:37;21.40;1.00
20284;DHT22;10301;50.832;4.080;2022-10-16T13:56:06;21.50;1.00
20284;DHT22;10301;50.832;4.080;2022-10-16T13:58:32;21.50;1.00
20284;DHT22;10301;50.832;4.080;2022-10-16T14:01:06;21.40;1.00
20284;DHT22;10301;50.832;4.080;2022-10-16T14:03:41;20.90;1.00
20284;DHT22;10301;50.832;4.080;2022-10-16T14:06:12;20.50;1.00
20284;DHT22;10301;50.832;4.080;2022-10-16T14:08:43;20.40;1.00
20284;DHT22;10301;50.832;4.080;2022-10-16T14:11:10;20.40;1.00
20284;DHT22;10301;50.832;4.080;2022-10-16T14:13:43;20.70;1.00
20284;DHT22;10301;50.832;4.080;2022-10-16T14:16:15;21.00;1.00
20284;DHT22;10301;50.832;4.080;2022-10-16T14:18:41;21.30;1.00
20284;DHT22;10301;50.832;4.080;2022-10-16T14:21:13;21.40;1.00
20284;DHT22;10301;50.832;4.080;2022-10-16T14:23:41;21.30;1.00
20284;DHT22;10301;50.832;4.080;2022-10-16T14:28:36;20.90;1.00
20284;DHT22;10301;50.832;4.080;2022-10-16T14:33:51;20.50;1.00
20284;DHT22;10301;50.832;4.080;2022-10-16T14:36:17;20.40;1.00
20284;DHT22;10301;50.832;4.080;2022-10-16T14:41:24;20.40;1.00
20284;DHT22;10301;50.832;4.080;2022-10-16T14:43:55;20.60;1.00
20284;DHT22;10301;50.832;4.080;2022-10-16T14:46:37;20.70;1.00
20284;DHT22;10301;50.832;4.080;2022-10-16T14:51:37;20.90;1.00
20284;DHT22;10301;50.832;4.080;2022-10-16T14:54:03;21.00;1.00
20284;DHT22;10301;50.832;4.080;2022-10-16T14:56:50;21.00;1.00
20284;DHT22;10301;50.832;4.080;2022-10-16T14:59:31;20.90;1.00
20284;DHT22;10301;50.832;4.080;2022-10-16T15:01:57;20.70;1.00
20284;DHT22;10301;50.832;4.080;2022-10-16T15:04:23;20.40;1.00
20284;DHT22;10301;50.832;4.080;2022-10-16T15:06:49;20.60;1.00
20284;DHT22;10301;50.832;4.080;2022-10-16T15:09:14;20.60;1.00
20284;DHT22;10301;50.832;4.080;2022-10-16T15:11:41;20.90;1.00
20284;DHT22;10301;50.832;4.080;2022-10-16T15:14:12;20.70;1.00
20284;DHT22;10301;50.832;4.080;2022-10-16T15:16:38;20.80;1.00
20284;DHT22;10301;50.832;4.080;2022-10-16T15:19:04;20.80;1.00
20284;DHT22;10301;50.832;4.080;2022-10-16T15:21:31;20.60;1.00
20284;DHT22;10301;50.832;4.080;2022-10-16T15:23:59;20.50;1.00
20284;DHT22;10301;50.832;4.080;2022-10-16T15:26:28;20.60;1.00
20284;DHT22;10301;50.832;4.080;2022-10-16T15:28:55;20.60;1.00
20284;DHT22;10301;50.832;4.080;2022-10-16T15:31:20;20.60;1.00
20284;DHT22;10301;50.832;4.080;2022-10-16T15:33:49;20.70;1.00
20284;DHT22;10301;50.832;4.080;2022-10-16T15:36:25;20.80;1.00
20284;DHT22;10301;50.832;4.080;2022-10-16T15:38:51;20.70;1.00
20284;DHT22;10301;50.832;4.080;2022-10-16T15:41:16;20.80;1.00
20284;DHT22;10301;50.832;4.080;2022-10-16T15:43:42;20.60;1.00
20284;DHT22;10301;50.832;4.080;2022-10-16T15:46:11;20.50;1.00
20284;DHT22;10301;50.832;4.080;2022-10-16T15:48:37;20.30;1.00
20284;DHT22;10301;50.832;4.080;2022-10-16T15:51:07;20.20;1.00
20284;DHT22;10301;50.832;4.080;2022-10-16T15:53:33;20.20;1.00
20284;DHT22;10301;50.832;4.080;2022-10-16T15:56:05;19.90;1.00
20284;DHT22;10301;50.832;4.080;2022-10-16T15:58:30;19.90;1.00
20284;DHT22;10301;50.832;4.080;2022-10-16T16:00:57;19.70;1.00
20284;DHT22;10301;50.832;4.080;2022-10-16T16:03:23;19.60;1.00
20284;DHT22;10301;50.832;4.080;2022-10-16T16:05:49;19.70;1.00
20284;DHT22;10301;50.832;4.080;2022-10-16T16:08:15;19.60;1.00
20284;DHT22;10301;50.832;4.080;2022-10-16T16:10:42;19.40;1.00
20284;DHT22;10301;50.832;4.080;2022-10-16T16:13:07;19.40;1.00
20284;DHT22;10301;50.832;4.080;2022-10-16T16:15:33;19.40;1.00
20284;DHT22;10301;50.832;4.080;2022-10-16T16:17:58;19.30;1.00
20284;DHT22;10301;50.832;4.080;2022-10-16T16:20:25;19.20;1.00
20284;DHT22;10301;50.832;4.080;2022-10-16T16:22:51;19.10;1.00
20284;DHT22;10301;50.832;4.080;2022-10-16T16:25:17;19.10;1.00
20284;DHT22;10301;50.832;4.080;2022-10-16T16:27:42;19.10;1.00
20284;DHT22;10301;50.832;4.080;2022-10-16T16:30:13;19.00;1.00
20284;DHT22;10301;50.832;4.080;2022-10-16T16:32:39;18.80;1.00
20284;DHT22;10301;50.832;4.080;2022-10-16T16:35:05;18.90;1.00
20284;DHT22;10301;50.832;4.080;2022-10-16T16:37:31;18.90;1.00
20284;DHT22;10301;50.832;4.080;2022-10-16T16:39:57;18.90;1.00
20284;DHT22;10301;50.832;4.080;2022-10-16T16:42:26;19.00;1.00
20284;DHT22;10301;50.832;4.080;2022-10-16T16:44:52;19.10;1.00
20284;DHT22;10301;50.832;4.080;2022-10-16T16:47:18;19.10;1.00
20284;DHT22;10301;50.832;4.080;2022-10-16T16:49:43;19.10;1.00
20284;DHT22;10301;50.832;4.080;2022-10-16T16:52:09;19.10;1.00
20284;DHT22;10301;50.832;4.080;2022-10-16T16:54:35;18.70;1.00
20284;DHT22;10301;50.832;4.080;2022-10-16T16:57:00;18.40;1.00
20284;DHT22;10301;50.832;4.080;2022-10-16T16:59:26;18.60;1.00
20284;DHT22;10301;50.832;4.080;2022-10-16T17:01:55;18.60;1.00
20284;DHT22;10301;50.832;4.080;2022-10-16T17:04:20;18.80;1.00
20284;DHT22;10301;50.832;4.080;2022-10-16T17:06:46;18.80;1.00
20284;DHT22;10301;50.832;4.080;2022-10-16T17:09:11;18.60;3.30
20284;DHT22;10301;50.832;4.080;2022-10-16T17:11:39;18.50;9.00
20284;DHT22;10301;50.832;4.080;2022-10-16T17:14:06;18.50;11.50
20284;DHT22;10301;50.832;4.080;2022-10-16T17:16:35;18.50;14.00
20284;DHT22;10301;50.832;4.080;2022-10-16T17:19:03;18.40;17.60
20284;DHT22;10301;50.832;4.080;2022-10-16T17:21:29;18.10;28.70
20284;DHT22;10301;50.832;4.080;2022-10-16T17:23:56;18.10;29.40
20284;DHT22;10301;50.832;4.080;2022-10-16T17:26:22;18.20;28.70
20284;DHT22;10301;50.832;4.080;2022-10-16T17:28:54;17.90;36.60
20284;DHT22;10301;50.832;4.080;2022-10-16T17:31:24;18.00;38.30
20284;DHT22;10301;50.832;4.080;2022-10-16T17:33:50;18.10;32.70
20284;DHT22;10301;50.832;4.080;2022-10-16T17:36:17;17.90;38.30